Boulder City, NV

12:05 AM PDT on July 25, 2016 (GMT -0700)
Boulder City

Weather History for KBVU - April, 2012

Change the Weather History Date:

Tuesday, April 24, 2012

  Actual Average (KLAS) Record (KLAS)
Temperature  
Mean Temperature 76 °F 70 °F  
Max Temperature 89 °F 81 °F 99 °F (1946)
Min Temperature 64 °F 59 °F 38 °F (1937)
Degree Days  
Heating Degree Days 0 1  
Month to date heating degree days 58  
Since 1 July heating degree days 1938  
Cooling Degree Days 12 6  
Month to date cooling degree days 87  
Year to date cooling degree days 118  
Growing Degree Days 26 (Base 50)    
Moisture  
Dew Point 31 °F    
Average Humidity 19    
Maximum Humidity 30    
Minimum Humidity 10    
Precipitation  
Precipitation 0.00 in 0.00 in 0.15 in (1999)
Month to date precipitation 0.13  
Year to date precipitation 1.87  
Snow  
Snow 0.00 in 0.00 in T in (1964)
Month to date snowfall 0.0  
Since 1 July snowfall 0.3  
Snow Depth -    
Sea Level Pressure  
Sea Level Pressure 29.91 in    
Wind  
Wind Speed 9 mph (SSE)    
Max Wind Speed 21 mph    
Max Gust Speed 28 mph    
Visibility 10 miles    
Events      
T = Trace of Precipitation, MM = Missing Value Source: NWS Daily Summary

Daily Weather History Graph

Daily Weather History Graph

Search for Another Location

Airport or City:

Trip Planner

Search our weather history database for the weather conditions in past years. The results will help you decide how hot, cold, wet, or windy it might be!

Date:

Astronomy

Apr. 24, 2012 Rise Set
Actual Time 5:54 AM PDT 7:21 PM PDT
Civil Twilight 5:27 AM PDT 7:48 PM PDT
Nautical Twilight 4:55 AM PDT 8:20 PM PDT
Astronomical Twilight 4:21 AM PDT 8:54 PM PDT
Moon 7:58 AM PDT (4/24) 10:39 PM PDT (4/24)
Length of Visible Light 14h 20m
Length of Day
13h 26m
Waxing Crescent, 11% of the Moon is Illuminated
Apr 24
Waxing Crescent
Apr 29
First Quarter
May 5
Full
May 12
Last Quarter
May 20
New

Hourly Weather History & Observations

Time (PDT) Temp. Dew Point Humidity Pressure Visibility Wind Dir Wind Speed Gust Speed Precip Events Conditions
12:15 AM 75.2 °F 32.0 °F 21% 29.86 in 10.0 mi SE 9.2 mph - N/A   Clear
12:55 AM 75.2 °F 32.0 °F 21% 29.87 in 10.0 mi SSE 9.2 mph - N/A   Clear
1:15 AM 73.4 °F 32.0 °F 22% 29.87 in 10.0 mi SE 9.2 mph - N/A   Clear
1:35 AM 73.4 °F 30.2 °F 20% 29.87 in 10.0 mi ESE 8.1 mph - N/A   Clear
1:55 AM 73.4 °F 30.2 °F 20% 29.87 in 10.0 mi ESE 6.9 mph - N/A   Clear
2:15 AM 71.6 °F 28.4 °F 20% 29.87 in 10.0 mi SE 9.2 mph - N/A   Clear
2:35 AM 71.6 °F 28.4 °F 20% 29.87 in 10.0 mi SE 10.4 mph - N/A   Clear
2:55 AM 69.8 °F 28.4 °F 21% 29.87 in 10.0 mi ESE 6.9 mph - N/A   Clear
3:15 AM 68.0 °F 28.4 °F 23% 29.89 in 10.0 mi ESE 3.5 mph - N/A   Clear
3:35 AM 68.0 °F 30.2 °F 24% 29.89 in 10.0 mi ENE 3.5 mph - N/A   Clear
3:55 AM 68.0 °F 30.2 °F 24% 29.89 in 10.0 mi SE 5.8 mph - N/A   Clear
4:15 AM 66.2 °F 30.2 °F 26% 29.89 in 10.0 mi WNW 9.2 mph - N/A   Clear
4:35 AM 68.0 °F 30.2 °F 24% 29.90 in 10.0 mi Calm Calm - N/A   Clear
4:55 AM 68.0 °F 32.0 °F 26% 29.91 in 10.0 mi West 5.8 mph - N/A   Clear
5:15 AM 66.2 °F 32.0 °F 28% 29.91 in 10.0 mi South 6.9 mph - N/A   Clear
5:35 AM 66.2 °F 32.0 °F 28% 29.91 in 10.0 mi South 4.6 mph - N/A   Clear
5:55 AM 66.2 °F 32.0 °F 28% 29.91 in 10.0 mi South 8.1 mph - N/A   Clear
6:15 AM 64.4 °F 32.0 °F 30% 29.92 in 10.0 mi South 4.6 mph - N/A   Clear
6:35 AM 66.2 °F 32.0 °F 28% 29.93 in 10.0 mi South 5.8 mph - N/A   Clear
6:55 AM 66.2 °F 32.0 °F 28% 29.94 in 10.0 mi South 4.6 mph - N/A   Clear
7:15 AM 68.0 °F 33.8 °F 28% 29.94 in 10.0 mi ESE 4.6 mph - N/A   Clear
7:35 AM 68.0 °F 33.8 °F 28% 29.95 in 10.0 mi Calm Calm - N/A   Clear
7:55 AM 71.6 °F 33.8 °F 25% 29.96 in 10.0 mi Calm Calm - N/A   Clear
8:15 AM 71.6 °F 33.8 °F 25% 29.97 in 10.0 mi SSE 8.1 mph - N/A   Clear
8:35 AM 73.4 °F 35.6 °F 25% 29.97 in 10.0 mi SE 10.4 mph - N/A   Clear
8:55 AM 75.2 °F 33.8 °F 22% 29.98 in 10.0 mi SSE 15.0 mph - N/A   Clear
9:15 AM 75.2 °F 33.8 °F 22% 29.99 in 10.0 mi SSE 13.8 mph 21.9 mph N/A   Clear
9:35 AM 77.0 °F 33.8 °F 21% 29.99 in 10.0 mi South 11.5 mph - N/A   Clear
9:55 AM 77.0 °F 35.6 °F 22% 29.99 in 10.0 mi ESE 10.4 mph 16.1 mph N/A   Clear
10:15 AM 78.8 °F 35.6 °F 21% 29.99 in 9.0 mi SSE 15.0 mph - N/A   Clear
10:35 AM 78.8 °F 33.8 °F 20% 29.98 in 10.0 mi SE 11.5 mph - N/A   Clear
10:55 AM 80.6 °F 33.8 °F 18% 29.97 in 10.0 mi SSE 9.2 mph - N/A   Clear
11:15 AM 80.6 °F 32.0 °F 17% 29.97 in 10.0 mi South 9.2 mph - N/A   Clear
11:35 AM 80.6 °F 35.6 °F 20% 29.97 in 10.0 mi SE 9.2 mph 16.1 mph N/A   Clear
11:55 AM 82.4 °F 35.6 °F 19% 29.96 in 9.0 mi SSE 11.5 mph 16.1 mph N/A   Clear
12:15 PM 82.4 °F 33.8 °F 17% 29.96 in 10.0 mi ENE 5.8 mph - N/A   Clear
12:35 PM 82.4 °F 33.8 °F 17% 29.95 in 10.0 mi ESE 3.5 mph - N/A   Clear
12:55 PM 84.2 °F 33.8 °F 16% 29.93 in 10.0 mi SSE 9.2 mph 18.4 mph N/A   Clear
1:15 PM 84.2 °F 32.0 °F 15% 29.93 in 10.0 mi ESE 11.5 mph - N/A   Clear
1:35 PM 84.2 °F 33.8 °F 16% 29.93 in 10.0 mi SE 9.2 mph - N/A   Clear
1:55 PM 86.0 °F 32.0 °F 14% 29.92 in 7.0 mi ESE 10.4 mph 21.9 mph N/A   Clear
2:15 PM 86.0 °F 32.0 °F 14% 29.91 in 10.0 mi South 12.7 mph - N/A   Clear
2:35 PM 89.6 °F 32.0 °F 13% 29.90 in 9.0 mi SSE 17.3 mph 20.7 mph N/A   Clear
2:55 PM 87.8 °F 32.0 °F 14% 29.89 in 10.0 mi SSE 16.1 mph 21.9 mph N/A   Clear
3:15 PM 87.8 °F 32.0 °F 14% 29.88 in 10.0 mi SSE 17.3 mph 21.9 mph N/A   Clear
3:35 PM 87.8 °F 32.0 °F 14% 29.88 in 10.0 mi ESE 15.0 mph 20.7 mph N/A   Clear
3:55 PM 89.6 °F 32.0 °F 13% 29.85 in 10.0 mi SE 15.0 mph - N/A   Clear
4:15 PM 87.8 °F 32.0 °F 14% 29.85 in 10.0 mi SE 17.3 mph 23.0 mph N/A   Clear
4:35 PM 87.8 °F 32.0 °F 14% 29.85 in 10.0 mi SSE 17.3 mph - N/A   Clear
4:55 PM 87.8 °F 32.0 °F 14% 29.85 in 10.0 mi SSE 16.1 mph 20.7 mph N/A   Clear
5:15 PM 87.8 °F 32.0 °F 14% 29.85 in 10.0 mi SSE 19.6 mph 27.6 mph N/A   Clear
5:35 PM 86.0 °F 32.0 °F 14% 29.85 in 10.0 mi SSE 20.7 mph 27.6 mph N/A   Clear
5:55 PM 86.0 °F 32.0 °F 14% 29.85 in 10.0 mi SSE 19.6 mph 26.5 mph N/A   Clear
6:15 PM 84.2 °F 32.0 °F 15% 29.85 in 10.0 mi South 13.8 mph 26.5 mph N/A   Clear
6:35 PM 84.2 °F 32.0 °F 15% 29.85 in 10.0 mi SSE 16.1 mph 21.9 mph N/A   Clear
6:55 PM 84.2 °F 32.0 °F 15% 29.85 in 10.0 mi South 13.8 mph - N/A   Clear
7:15 PM 84.2 °F 30.2 °F 14% 29.86 in 10.0 mi South 15.0 mph 18.4 mph N/A   Clear
7:35 PM 82.4 °F 32.0 °F 16% 29.86 in 10.0 mi South 9.2 mph - N/A   Clear
7:55 PM 82.4 °F 26.6 °F 13% 29.87 in 10.0 mi South 9.2 mph - N/A   Clear
8:15 PM 80.6 °F 19.4 °F 10% 29.88 in 10.0 mi South 8.1 mph - N/A   Clear
8:35 PM 80.6 °F 21.2 °F 11% 29.89 in 10.0 mi South 5.8 mph - N/A   Clear
8:55 PM 80.6 °F 21.2 °F 11% 29.90 in 10.0 mi SSW 6.9 mph - N/A   Clear
9:15 PM 77.0 °F 21.2 °F 12% 29.90 in 10.0 mi SSW 6.9 mph - N/A   Clear
9:35 PM 77.0 °F 23.0 °F 13% 29.91 in 10.0 mi Calm Calm - N/A   Clear
9:55 PM 77.0 °F 23.0 °F 13% 29.91 in 10.0 mi Calm Calm - N/A   Clear
10:15 PM 77.0 °F 23.0 °F 13% 29.91 in 10.0 mi South 3.5 mph - N/A   Clear
10:35 PM 77.0 °F 23.0 °F 13% 29.91 in 10.0 mi SSW 3.5 mph - N/A   Clear
10:55 PM 75.2 °F 23.0 °F 14% 29.91 in 10.0 mi Calm Calm - N/A   Clear
11:15 PM 75.2 °F 24.8 °F 15% 29.91 in 10.0 mi WSW 3.5 mph - N/A   Clear
11:35 PM 73.4 °F 24.8 °F 16% 29.91 in 10.0 mi Calm Calm - N/A   Clear
11:55 PM 71.6 °F 33.8 °F 25% 29.92 in 10.0 mi Calm Calm - N/A   Clear